sensor_id;sensor_type;location;lat;lon;timestamp;temperature;humidity
46181;DHT22;58963;50.438;30.594;2022-09-29T00:00:29;10.10;99.90
46181;DHT22;58963;50.438;30.594;2022-09-29T00:05:51;10.20;99.90
46181;DHT22;58963;50.438;30.594;2022-09-29T00:11:13;10.30;99.90
46181;DHT22;58963;50.438;30.594;2022-09-29T00:16:33;10.10;99.90
46181;DHT22;58963;50.438;30.594;2022-09-29T00:21:52;9.80;99.90
46181;DHT22;58963;50.438;30.594;2022-09-29T00:27:16;9.60;99.90
46181;DHT22;58963;50.438;30.594;2022-09-29T00:32:36;9.50;99.90
46181;DHT22;58963;50.438;30.594;2022-09-29T00:37:55;9.60;99.90
46181;DHT22;58963;50.438;30.594;2022-09-29T00:43:23;9.70;99.90
46181;DHT22;58963;50.438;30.594;2022-09-29T00:48:44;9.80;99.90
46181;DHT22;58963;50.438;30.594;2022-09-29T00:54:05;10.10;99.90
46181;DHT22;58963;50.438;30.594;2022-09-29T00:59:50;10.10;99.90
46181;DHT22;58963;50.438;30.594;2022-09-29T01:05:15;10.10;99.90
46181;DHT22;58963;50.438;30.594;2022-09-29T01:10:38;9.90;99.90
46181;DHT22;58963;50.438;30.594;2022-09-29T01:15:58;9.70;99.90
46181;DHT22;58963;50.438;30.594;2022-09-29T01:38:53;10.00;99.90
46181;DHT22;58963;50.438;30.594;2022-09-29T01:44:27;10.10;99.90
46181;DHT22;58963;50.438;30.594;2022-09-29T01:49:54;10.00;99.90
46181;DHT22;58963;50.438;30.594;2022-09-29T01:55:23;10.00;99.90
46181;DHT22;58963;50.438;30.594;2022-09-29T02:00:49;9.90;99.90
46181;DHT22;58963;50.438;30.594;2022-09-29T02:06:16;9.90;99.90
46181;DHT22;58963;50.438;30.594;2022-09-29T02:11:39;10.00;99.90
46181;DHT22;58963;50.438;30.594;2022-09-29T02:17:12;10.00;99.90
46181;DHT22;58963;50.438;30.594;2022-09-29T02:22:37;9.90;99.90
46181;DHT22;58963;50.438;30.594;2022-09-29T02:27:57;9.90;99.90
46181;DHT22;58963;50.438;30.594;2022-09-29T02:33:24;9.80;99.90
46181;DHT22;58963;50.438;30.594;2022-09-29T02:38:49;9.70;99.90
46181;DHT22;58963;50.438;30.594;2022-09-29T02:44:15;9.70;99.90
46181;DHT22;58963;50.438;30.594;2022-09-29T02:55:18;9.60;99.90
46181;DHT22;58963;50.438;30.594;2022-09-29T03:00:39;9.50;99.90
46181;DHT22;58963;50.438;30.594;2022-09-29T03:05:59;9.50;99.90
46181;DHT22;58963;50.438;30.594;2022-09-29T03:11:18;9.40;99.90
46181;DHT22;58963;50.438;30.594;2022-09-29T03:16:37;9.30;99.90
46181;DHT22;58963;50.438;30.594;2022-09-29T03:21:57;9.20;99.90
46181;DHT22;58963;50.438;30.594;2022-09-29T03:27:17;9.20;99.90
46181;DHT22;58963;50.438;30.594;2022-09-29T03:32:36;9.10;99.90
46181;DHT22;58963;50.438;30.594;2022-09-29T03:37:59;9.10;99.90
46181;DHT22;58963;50.438;30.594;2022-09-29T03:43:19;9.10;99.90
46181;DHT22;58963;50.438;30.594;2022-09-29T03:48:38;9.10;99.90
46181;DHT22;58963;50.438;30.594;2022-09-29T03:53:57;9.20;99.90
46181;DHT22;58963;50.438;30.594;2022-09-29T03:59:17;9.20;99.90
46181;DHT22;58963;50.438;30.594;2022-09-29T04:04:36;9.20;99.90
46181;DHT22;58963;50.438;30.594;2022-09-29T04:09:55;9.20;99.90
46181;DHT22;58963;50.438;30.594;2022-09-29T04:15:14;9.20;99.90
46181;DHT22;58963;50.438;30.594;2022-09-29T04:20:34;9.30;99.90
46181;DHT22;58963;50.438;30.594;2022-09-29T04:25:57;9.40;99.90
46181;DHT22;58963;50.438;30.594;2022-09-29T04:31:16;9.50;99.90
46181;DHT22;58963;50.438;30.594;2022-09-29T04:36:35;9.50;99.90
46181;DHT22;58963;50.438;30.594;2022-09-29T04:41:54;9.60;99.90
46181;DHT22;58963;50.438;30.594;2022-09-29T04:47:13;9.70;99.90
46181;DHT22;58963;50.438;30.594;2022-09-29T04:52:33;9.80;99.90
46181;DHT22;58963;50.438;30.594;2022-09-29T04:57:52;9.80;99.90
46181;DHT22;58963;50.438;30.594;2022-09-29T05:03:11;9.80;99.90
46181;DHT22;58963;50.438;30.594;2022-09-29T05:08:30;9.90;99.90
46181;DHT22;58963;50.438;30.594;2022-09-29T05:13:50;10.10;99.90
46181;DHT22;58963;50.438;30.594;2022-09-29T05:19:10;10.20;99.90
46181;DHT22;58963;50.438;30.594;2022-09-29T05:24:29;10.30;99.90
46181;DHT22;58963;50.438;30.594;2022-09-29T05:29:49;10.40;99.90
46181;DHT22;58963;50.438;30.594;2022-09-29T05:35:08;10.70;99.90
46181;DHT22;58963;50.438;30.594;2022-09-29T05:40:28;10.70;99.90
46181;DHT22;58963;50.438;30.594;2022-09-29T05:45:47;10.90;99.90
46181;DHT22;58963;50.438;30.594;2022-09-29T05:51:10;11.30;99.90
46181;DHT22;58963;50.438;30.594;2022-09-29T05:56:30;11.40;99.90
46181;DHT22;58963;50.438;30.594;2022-09-29T06:01:49;11.30;99.90
46181;DHT22;58963;50.438;30.594;2022-09-29T06:07:09;11.30;99.90
46181;DHT22;58963;50.438;30.594;2022-09-29T06:12:32;11.30;99.90
46181;DHT22;58963;50.438;30.594;2022-09-29T06:17:55;11.20;99.90
46181;DHT22;58963;50.438;30.594;2022-09-29T06:23:15;11.30;99.90
46181;DHT22;58963;50.438;30.594;2022-09-29T06:28:35;11.40;99.90
46181;DHT22;58963;50.438;30.594;2022-09-29T06:34:03;11.40;99.90
46181;DHT22;58963;50.438;30.594;2022-09-29T06:39:22;11.30;99.90
46181;DHT22;58963;50.438;30.594;2022-09-29T06:44:41;11.40;99.90
46181;DHT22;58963;50.438;30.594;2022-09-29T06:50:01;11.50;99.90
46181;DHT22;58963;50.438;30.594;2022-09-29T06:55:20;11.40;99.90
46181;DHT22;58963;50.438;30.594;2022-09-29T07:00:39;11.50;99.90
46181;DHT22;58963;50.438;30.594;2022-09-29T07:06:05;11.60;99.90
46181;DHT22;58963;50.438;30.594;2022-09-29T07:11:25;12.30;99.90
46181;DHT22;58963;50.438;30.594;2022-09-29T07:16:45;13.10;99.90
46181;DHT22;58963;50.438;30.594;2022-09-29T07:22:07;15.00;99.90
46181;DHT22;58963;50.438;30.594;2022-09-29T07:27:27;16.80;99.90
46181;DHT22;58963;50.438;30.594;2022-09-29T07:32:47;17.10;99.90
46181;DHT22;58963;50.438;30.594;2022-09-29T07:38:06;17.90;99.90
46181;DHT22;58963;50.438;30.594;2022-09-29T07:43:25;19.60;97.50
46181;DHT22;58963;50.438;30.594;2022-09-29T07:48:44;20.80;91.10
46181;DHT22;58963;50.438;30.594;2022-09-29T08:26:03;19.00;99.90
46181;DHT22;58963;50.438;30.594;2022-09-29T08:31:22;18.10;99.90
46181;DHT22;58963;50.438;30.594;2022-09-29T08:36:42;18.40;99.90
46181;DHT22;58963;50.438;30.594;2022-09-29T08:42:05;19.70;93.30
46181;DHT22;58963;50.438;30.594;2022-09-29T08:47:38;19.00;96.50
46181;DHT22;58963;50.438;30.594;2022-09-29T08:53:06;18.80;94.00
46181;DHT22;58963;50.438;30.594;2022-09-29T08:58:26;20.60;86.70
46181;DHT22;58963;50.438;30.594;2022-09-29T09:20:43;20.10;79.60
46181;DHT22;58963;50.438;30.594;2022-09-29T09:26:03;21.10;77.00
46181;DHT22;58963;50.438;30.594;2022-09-29T09:36:58;21.50;71.00
46181;DHT22;58963;50.438;30.594;2022-09-29T09:42:23;20.00;74.30
46181;DHT22;58963;50.438;30.594;2022-09-29T09:48:04;19.60;77.10
46181;DHT22;58963;50.438;30.594;2022-09-29T09:53:53;19.20;79.70
46181;DHT22;58963;50.438;30.594;2022-09-29T09:59:37;18.60;80.60
46181;DHT22;58963;50.438;30.594;2022-09-29T10:05:00;18.20;81.90
46181;DHT22;58963;50.438;30.594;2022-09-29T10:10:25;18.10;86.10
46181;DHT22;58963;50.438;30.594;2022-09-29T10:26:51;18.90;82.20
46181;DHT22;58963;50.438;30.594;2022-09-29T10:32:14;19.10;84.10
46181;DHT22;58963;50.438;30.594;2022-09-29T10:37:36;20.90;75.30
46181;DHT22;58963;50.438;30.594;2022-09-29T10:48:16;22.10;81.20
46181;DHT22;58963;50.438;30.594;2022-09-29T10:53:41;21.60;65.30
46181;DHT22;58963;50.438;30.594;2022-09-29T10:59:03;21.30;67.00
46181;DHT22;58963;50.438;30.594;2022-09-29T11:09:55;20.30;64.30
46181;DHT22;58963;50.438;30.594;2022-09-29T11:15:29;20.00;67.20
46181;DHT22;58963;50.438;30.594;2022-09-29T11:55:05;22.80;58.90
46181;DHT22;58963;50.438;30.594;2022-09-29T12:06:43;21.00;64.90
46181;DHT22;58963;50.438;30.594;2022-09-29T12:12:30;21.00;63.10
46181;DHT22;58963;50.438;30.594;2022-09-29T12:17:58;20.40;67.80
46181;DHT22;58963;50.438;30.594;2022-09-29T12:23:22;20.20;69.80
46181;DHT22;58963;50.438;30.594;2022-09-29T12:28:43;19.40;74.00
46181;DHT22;58963;50.438;30.594;2022-09-29T12:34:12;19.20;74.70
46181;DHT22;58963;50.438;30.594;2022-09-29T12:50:39;19.80;74.90
46181;DHT22;58963;50.438;30.594;2022-09-29T12:56:03;19.80;75.90
46181;DHT22;58963;50.438;30.594;2022-09-29T13:01:28;19.80;76.80
46181;DHT22;58963;50.438;30.594;2022-09-29T13:29:20;19.30;82.30
46181;DHT22;58963;50.438;30.594;2022-09-29T13:34:47;19.50;81.60
46181;DHT22;58963;50.438;30.594;2022-09-29T13:40:23;19.50;81.80
46181;DHT22;58963;50.438;30.594;2022-09-29T13:45:43;19.80;82.00
46181;DHT22;58963;50.438;30.594;2022-09-29T13:51:22;19.90;80.70
46181;DHT22;58963;50.438;30.594;2022-09-29T13:56:42;19.50;82.70
46181;DHT22;58963;50.438;30.594;2022-09-29T14:02:01;19.50;82.50
46181;DHT22;58963;50.438;30.594;2022-09-29T14:14:05;19.20;85.40
46181;DHT22;58963;50.438;30.594;2022-09-29T14:19:09;19.20;85.70
46181;DHT22;58963;50.438;30.594;2022-09-29T14:30:19;18.90;89.10
46181;DHT22;58963;50.438;30.594;2022-09-29T14:41:30;18.60;91.20
46181;DHT22;58963;50.438;30.594;2022-09-29T14:47:16;18.40;91.70
46181;DHT22;58963;50.438;30.594;2022-09-29T14:59:16;18.10;91.20
46181;DHT22;58963;50.438;30.594;2022-09-29T15:04:38;17.90;91.40
46181;DHT22;58963;50.438;30.594;2022-09-29T15:09:59;17.80;91.60
46181;DHT22;58963;50.438;30.594;2022-09-29T15:15:36;17.60;91.40
46181;DHT22;58963;50.438;30.594;2022-09-29T15:21:05;17.50;92.00
46181;DHT22;58963;50.438;30.594;2022-09-29T15:26:33;17.40;92.20
46181;DHT22;58963;50.438;30.594;2022-09-29T15:31:54;17.30;92.50
46181;DHT22;58963;50.438;30.594;2022-09-29T15:37:14;17.20;92.60
46181;DHT22;58963;50.438;30.594;2022-09-29T15:42:38;17.10;92.60
46181;DHT22;58963;50.438;30.594;2022-09-29T15:48:05;17.00;93.40
46181;DHT22;58963;50.438;30.594;2022-09-29T15:53:26;16.90;93.80
46181;DHT22;58963;50.438;30.594;2022-09-29T15:58:46;16.80;94.30
46181;DHT22;58963;50.438;30.594;2022-09-29T16:04:07;16.70;94.70
46181;DHT22;58963;50.438;30.594;2022-09-29T16:09:26;16.70;95.20
46181;DHT22;58963;50.438;30.594;2022-09-29T16:14:46;16.60;96.30
46181;DHT22;58963;50.438;30.594;2022-09-29T16:20:10;16.50;97.30
46181;DHT22;58963;50.438;30.594;2022-09-29T16:25:32;16.50;98.70
46181;DHT22;58963;50.438;30.594;2022-09-29T16:31:15;16.40;99.40
46181;DHT22;58963;50.438;30.594;2022-09-29T16:36:35;16.40;99.90
46181;DHT22;58963;50.438;30.594;2022-09-29T16:41:57;16.30;99.90
46181;DHT22;58963;50.438;30.594;2022-09-29T16:47:22;16.30;99.90
46181;DHT22;58963;50.438;30.594;2022-09-29T16:52:48;16.20;99.90
46181;DHT22;58963;50.438;30.594;2022-09-29T16:58:11;16.10;99.90
46181;DHT22;58963;50.438;30.594;2022-09-29T17:03:31;16.10;99.90
46181;DHT22;58963;50.438;30.594;2022-09-29T17:08:50;16.10;99.90
46181;DHT22;58963;50.438;30.594;2022-09-29T17:14:10;16.00;99.90
46181;DHT22;58963;50.438;30.594;2022-09-29T17:19:31;16.00;99.90
46181;DHT22;58963;50.438;30.594;2022-09-29T17:24:51;16.00;99.90
46181;DHT22;58963;50.438;30.594;2022-09-29T17:30:12;15.90;99.90
46181;DHT22;58963;50.438;30.594;2022-09-29T17:35:46;15.90;99.90
46181;DHT22;58963;50.438;30.594;2022-09-29T17:41:08;15.90;99.90
46181;DHT22;58963;50.438;30.594;2022-09-29T17:46:35;15.90;99.90
46181;DHT22;58963;50.438;30.594;2022-09-29T17:51:54;15.80;99.90
46181;DHT22;58963;50.438;30.594;2022-09-29T17:57:24;15.80;99.90
46181;DHT22;58963;50.438;30.594;2022-09-29T18:02:47;15.70;99.90
46181;DHT22;58963;50.438;30.594;2022-09-29T18:08:13;15.70;99.90
46181;DHT22;58963;50.438;30.594;2022-09-29T18:13:32;15.70;99.90
46181;DHT22;58963;50.438;30.594;2022-09-29T18:18:51;15.70;99.90
46181;DHT22;58963;50.438;30.594;2022-09-29T18:24:10;15.60;99.90
46181;DHT22;58963;50.438;30.594;2022-09-29T18:29:30;15.60;99.90
46181;DHT22;58963;50.438;30.594;2022-09-29T18:34:50;15.60;99.90
46181;DHT22;58963;50.438;30.594;2022-09-29T18:40:09;15.50;99.90
46181;DHT22;58963;50.438;30.594;2022-09-29T18:45:30;15.50;99.90
46181;DHT22;58963;50.438;30.594;2022-09-29T18:50:51;15.50;99.90
46181;DHT22;58963;50.438;30.594;2022-09-29T18:56:15;15.40;99.90
46181;DHT22;58963;50.438;30.594;2022-09-29T19:01:35;15.40;99.90
46181;DHT22;58963;50.438;30.594;2022-09-29T19:06:54;15.40;99.90
46181;DHT22;58963;50.438;30.594;2022-09-29T19:12:13;15.40;99.90
46181;DHT22;58963;50.438;30.594;2022-09-29T19:17:33;15.40;99.90
46181;DHT22;58963;50.438;30.594;2022-09-29T19:22:54;15.40;99.90
46181;DHT22;58963;50.438;30.594;2022-09-29T19:28:14;15.40;99.90
46181;DHT22;58963;50.438;30.594;2022-09-29T19:33:34;15.40;99.90
46181;DHT22;58963;50.438;30.594;2022-09-29T19:38:53;15.40;99.90
46181;DHT22;58963;50.438;30.594;2022-09-29T19:44:15;15.40;99.90
46181;DHT22;58963;50.438;30.594;2022-09-29T19:49:35;15.30;99.90
46181;DHT22;58963;50.438;30.594;2022-09-29T19:54:54;15.30;99.90
46181;DHT22;58963;50.438;30.594;2022-09-29T20:00:17;15.30;99.90
46181;DHT22;58963;50.438;30.594;2022-09-29T20:05:38;15.20;99.90
46181;DHT22;58963;50.438;30.594;2022-09-29T20:11:11;15.10;99.90
46181;DHT22;58963;50.438;30.594;2022-09-29T20:16:35;15.00;99.90
46181;DHT22;58963;50.438;30.594;2022-09-29T20:21:55;14.70;99.90
46181;DHT22;58963;50.438;30.594;2022-09-29T20:27:15;14.60;99.90
46181;DHT22;58963;50.438;30.594;2022-09-29T20:32:37;14.40;99.90
46181;DHT22;58963;50.438;30.594;2022-09-29T20:37:56;14.40;99.90
46181;DHT22;58963;50.438;30.594;2022-09-29T20:43:16;14.30;99.90
46181;DHT22;58963;50.438;30.594;2022-09-29T20:48:36;14.50;99.90
46181;DHT22;58963;50.438;30.594;2022-09-29T20:53:58;14.60;99.90
46181;DHT22;58963;50.438;30.594;2022-09-29T20:59:19;14.60;99.90
46181;DHT22;58963;50.438;30.594;2022-09-29T21:04:39;14.60;99.90
46181;DHT22;58963;50.438;30.594;2022-09-29T21:10:01;14.60;99.90
46181;DHT22;58963;50.438;30.594;2022-09-29T21:15:21;14.60;99.90
46181;DHT22;58963;50.438;30.594;2022-09-29T21:20:41;14.50;99.90
46181;DHT22;58963;50.438;30.594;2022-09-29T21:26:11;14.40;99.90
46181;DHT22;58963;50.438;30.594;2022-09-29T21:31:35;14.50;99.90
46181;DHT22;58963;50.438;30.594;2022-09-29T21:36:54;14.50;99.90
46181;DHT22;58963;50.438;30.594;2022-09-29T21:42:13;14.40;99.90
46181;DHT22;58963;50.438;30.594;2022-09-29T21:47:32;14.20;99.90
46181;DHT22;58963;50.438;30.594;2022-09-29T21:53:10;14.00;99.90
46181;DHT22;58963;50.438;30.594;2022-09-29T21:58:31;13.90;99.90
46181;DHT22;58963;50.438;30.594;2022-09-29T22:03:53;13.90;99.90
46181;DHT22;58963;50.438;30.594;2022-09-29T22:09:15;14.00;99.90
46181;DHT22;58963;50.438;30.594;2022-09-29T22:14:35;14.00;99.90
46181;DHT22;58963;50.438;30.594;2022-09-29T22:19:54;14.00;99.90
46181;DHT22;58963;50.438;30.594;2022-09-29T22:25:13;14.10;99.90
46181;DHT22;58963;50.438;30.594;2022-09-29T22:30:32;14.00;99.90
46181;DHT22;58963;50.438;30.594;2022-09-29T22:35:56;14.00;99.90
46181;DHT22;58963;50.438;30.594;2022-09-29T22:41:17;14.00;99.90
46181;DHT22;58963;50.438;30.594;2022-09-29T22:46:36;14.00;99.90
46181;DHT22;58963;50.438;30.594;2022-09-29T22:51:56;14.10;99.90
46181;DHT22;58963;50.438;30.594;2022-09-29T22:57:15;14.10;99.90
46181;DHT22;58963;50.438;30.594;2022-09-29T23:02:34;14.30;99.90
46181;DHT22;58963;50.438;30.594;2022-09-29T23:07:54;14.20;99.90
46181;DHT22;58963;50.438;30.594;2022-09-29T23:13:13;14.30;99.90
46181;DHT22;58963;50.438;30.594;2022-09-29T23:18:35;14.40;99.90
46181;DHT22;58963;50.438;30.594;2022-09-29T23:23:58;14.40;99.90
46181;DHT22;58963;50.438;30.594;2022-09-29T23:29:17;14.30;99.90
46181;DHT22;58963;50.438;30.594;2022-09-29T23:34:37;14.20;99.90
46181;DHT22;58963;50.438;30.594;2022-09-29T23:39:56;14.20;99.90
46181;DHT22;58963;50.438;30.594;2022-09-29T23:45:15;14.20;99.90
46181;DHT22;58963;50.438;30.594;2022-09-29T23:50:34;14.20;99.90
46181;DHT22;58963;50.438;30.594;2022-09-29T23:55:54;14.20;99.90
